Time;durP1;ratioP1;P1;durP2;ratioP2;P2;SDS_P1;SDS_P2;PMS_P1;PMS_P2;Temp;Humidity;BMP_temperature;BMP_pressure;BME280_temperature;BME280_humidity;BME280_pressure;Samples;Min_cycle;Max_cycle;Signal;HPM_P1;HPM_P2
2021/11/21 00:00:00;;;;;;;4.90;2.10;;;;;;;3.19;100.00;99559.34;1646450;87;22485;-71
2021/11/21 00:02:27;;;;;;;4.77;2.00;;;;;;;3.15;100.00;99562.41;1641514;87;21088;-69
2021/11/21 00:04:54;;;;;;;5.00;2.20;;;;;;;3.08;100.00;99558.58;1667749;85;21069;-70
2021/11/21 00:07:21;;;;;;;3.60;2.20;;;;;;;3.02;100.00;99555.97;1657419;85;21007;-70
2021/11/21 00:09:50;;;;;;;4.60;2.13;;;;;;;2.96;100.00;99550.67;1661449;85;21034;-70
2021/11/21 00:12:17;;;;;;;6.10;2.00;;;;;;;2.91;100.00;99546.72;1668015;85;21507;-71
2021/11/21 00:14:45;;;;;;;3.87;2.20;;;;;;;2.83;100.00;99552.25;1642639;87;21090;-70
2021/11/21 00:17:12;;;;;;;7.70;2.77;;;;;;;2.78;100.00;99560.27;1644431;87;21596;-71
2021/11/21 00:19:41;;;;;;;4.73;2.60;;;;;;;2.74;100.00;99560.19;1662493;85;21037;-70
2021/11/21 00:22:11;;;;;;;6.40;2.40;;;;;;;2.72;100.00;99567.49;1667657;85;21102;-70
2021/11/21 00:24:38;;;;;;;2.77;2.10;;;;;;;2.69;100.00;99565.08;1668613;85;21053;-71
2021/11/21 00:27:06;;;;;;;4.90;2.30;;;;;;;2.65;100.00;99565.83;1685084;85;21034;-69
2021/11/21 00:29:34;;;;;;;4.33;2.20;;;;;;;2.62;100.00;99556.75;1658276;85;21082;-71
2021/11/21 00:32:01;;;;;;;6.47;2.43;;;;;;;2.60;100.00;99558.70;1685947;84;21087;-70
2021/11/21 00:34:28;;;;;;;4.17;2.30;;;;;;;2.56;100.00;99563.96;1686107;85;21062;-71
2021/11/21 00:36:56;;;;;;;7.87;2.63;;;;;;;2.50;100.00;99562.67;1689161;85;21058;-70
2021/11/21 00:39:23;;;;;;;5.60;2.80;;;;;;;2.44;100.00;99568.05;1657119;85;21555;-70
2021/11/21 00:41:52;;;;;;;7.37;3.53;;;;;;;2.38;100.00;99575.22;1686185;85;21030;-71
2021/11/21 00:44:22;;;;;;;7.10;3.07;;;;;;;2.32;100.00;99572.22;1689318;85;21062;-70
2021/11/21 00:46:49;;;;;;;12.93;5.13;;;;;;;2.26;100.00;99573.09;1689164;84;21043;-70
2021/11/21 00:49:18;;;;;;;15.00;5.83;;;;;;;2.22;100.00;99577.00;1657233;85;21067;-71
2021/11/21 00:51:46;;;;;;;20.10;7.30;;;;;;;2.23;100.00;99583.17;1689090;84;21070;-71
2021/11/21 00:54:27;;;;;;;20.10;7.97;;;;;;;2.26;100.00;99585.09;1657145;85;21031;-70
2021/11/21 00:56:56;;;;;;;23.67;9.27;;;;;;;2.27;100.00;99577.47;1683205;85;21083;-69
2021/11/21 00:59:24;;;;;;;28.63;10.70;;;;;;;2.24;100.00;99571.55;1688002;85;21102;-70
2021/11/21 01:01:52;;;;;;;34.47;12.90;;;;;;;2.19;100.00;99574.59;1655161;85;21066;-71
2021/11/21 01:04:20;;;;;;;35.53;14.20;;;;;;;2.13;100.00;99574.28;1683326;85;21023;-70
2021/11/21 01:06:47;;;;;;;34.93;13.97;;;;;;;2.04;100.00;99580.73;1689257;84;21046;-70
2021/11/21 01:09:15;;;;;;;42.90;16.47;;;;;;;1.96;100.00;99586.34;1654756;85;21198;-71
2021/11/21 01:11:43;;;;;;;39.43;15.20;;;;;;;1.88;100.00;99582.98;1655648;85;21023;-71
2021/11/21 01:14:10;;;;;;;32.00;13.67;;;;;;;1.82;100.00;99596.80;1692078;85;21026;-70
2021/11/21 01:16:37;;;;;;;28.47;13.43;;;;;;;1.76;100.00;99595.98;1657235;85;21067;-69
2021/11/21 01:19:05;;;;;;;29.87;13.60;;;;;;;1.69;100.00;99594.30;1655443;85;21039;-70
2021/11/21 01:21:33;;;;;;;28.47;11.70;;;;;;;1.62;100.00;99597.11;1653071;85;21019;-71
2021/11/21 01:24:01;;;;;;;21.70;9.53;;;;;;;1.52;100.00;99590.33;1690735;85;21026;-70
2021/11/21 01:26:28;;;;;;;21.00;7.53;;;;;;;1.44;100.00;99588.78;1680751;85;21011;-71
2021/11/21 01:28:56;;;;;;;22.47;6.90;;;;;;;1.32;100.00;99579.46;1615168;87;21718;-71
2021/11/21 01:31:23;;;;;;;23.10;6.77;;;;;;;1.24;100.00;99579.25;1616091;87;21027;-71
2021/11/21 01:33:50;;;;;;;23.63;6.10;;;;;;;1.18;100.00;99585.05;1617695;87;21039;-69
2021/11/21 01:36:18;;;;;;;18.00;5.80;;;;;;;1.14;100.00;99583.61;1644421;86;21503;-69
2021/11/21 01:38:45;;;;;;;15.27;5.07;;;;;;;1.08;100.00;99592.94;1641357;87;21102;-70
2021/11/21 01:41:13;;;;;;;24.47;7.53;;;;;;;1.02;100.00;99593.41;1663449;85;21539;-70
2021/11/21 01:43:43;;;;;;;31.93;10.43;;;;;;;0.97;100.00;99591.58;1642499;87;21503;-71
2021/11/21 01:46:11;;;;;;;30.40;9.90;;;;;;;0.95;100.00;99594.86;1644313;87;21074;-71
2021/11/21 01:48:38;;;;;;;22.93;7.30;;;;;;;0.92;100.00;99587.97;1641784;87;21070;-71
2021/11/21 01:51:07;;;;;;;17.57;5.70;;;;;;;0.91;100.00;99586.27;1609700;87;21083;-71
2021/11/21 01:53:36;;;;;;;17.90;6.03;;;;;;;0.93;100.00;99588.31;1667632;85;21089;-70
2021/11/21 01:56:04;;;;;;;18.97;5.60;;;;;;;0.94;100.00;99587.86;1668730;85;21035;-69
2021/11/21 01:58:34;;;;;;;12.50;5.10;;;;;;;0.95;100.00;99580.22;1668174;85;21062;-71
2021/11/21 02:01:01;;;;;;;14.67;5.00;;;;;;;0.93;100.00;99576.34;1614760;87;21003;-70
2021/11/21 02:03:29;;;;;;;15.27;5.10;;;;;;;0.93;100.00;99573.67;1647088;87;21070;-70
2021/11/21 02:05:56;;;;;;;16.70;5.43;;;;;;;0.94;100.00;99573.22;1595650;87;21052;-70
2021/11/21 02:08:25;;;;;;;16.90;4.97;;;;;;;0.94;100.00;99573.22;1611269;88;21147;-69
2021/11/21 02:10:59;;;;;;;11.60;4.23;;;;;;;0.95;100.00;99578.39;1642356;87;21085;-70
2021/11/21 02:13:26;;;;;;;9.60;3.73;;;;;;;0.96;100.00;99585.91;1638316;87;21088;-70
2021/11/21 02:15:53;;;;;;;14.10;4.87;;;;;;;0.96;100.00;99588.58;1610614;87;21103;-70
2021/11/21 02:18:22;;;;;;;17.53;5.33;;;;;;;0.94;100.00;99602.00;1612322;87;21099;-70
2021/11/21 02:20:52;;;;;;;15.33;5.27;;;;;;;0.92;100.00;99609.27;1611717;88;21024;-69
2021/11/21 02:23:19;;;;;;;11.27;4.20;;;;;;;0.88;100.00;99604.29;1609355;87;21347;-70
2021/11/21 02:25:46;;;;;;;14.87;4.70;;;;;;;0.84;100.00;99604.17;1609622;87;21065;-70
2021/11/21 02:28:13;;;;;;;19.20;5.73;;;;;;;0.77;100.00;99600.30;1629006;87;21558;-69
2021/11/21 02:30:42;;;;;;;16.17;5.00;;;;;;;0.69;100.00;99603.08;1636189;87;21034;-70
2021/11/21 02:33:15;;;;;;;15.90;4.80;;;;;;;0.60;100.00;99597.11;1639833;87;21051;-70
2021/11/21 02:35:44;;;;;;;12.23;4.03;;;;;;;0.55;100.00;99596.15;1566122;90;21654;-70
2021/11/21 02:38:12;;;;;;;11.00;4.33;;;;;;;0.56;100.00;99604.97;1563789;89;21021;-70
2021/11/21 02:40:41;;;;;;;9.80;4.10;;;;;;;0.54;100.00;99596.27;1588420;90;21041;-70
2021/11/21 02:43:08;;;;;;;9.60;3.33;;;;;;;0.53;100.00;99598.09;1554192;90;21089;-70
2021/11/21 02:45:36;;;;;;;7.60;3.60;;;;;;;0.53;100.00;99604.73;1612926;88;21081;-69
2021/11/21 02:48:05;;;;;;;9.07;4.07;;;;;;;0.53;100.00;99590.56;1615038;88;21182;-71
2021/11/21 02:50:34;;;;;;;7.40;3.93;;;;;;;0.54;100.00;99594.44;1574524;88;21105;-70
2021/11/21 02:53:01;;;;;;;11.00;3.90;;;;;;;0.55;100.00;99593.98;1596078;90;21154;-70
2021/11/21 02:55:30;;;;;;;9.00;3.60;;;;;;;0.54;100.00;99595.77;1593572;90;21069;-71
2021/11/21 02:58:01;;;;;;;7.60;3.90;;;;;;;0.53;100.00;99599.88;1581913;89;21048;-70
2021/11/21 03:00:28;;;;;;;9.63;3.90;;;;;;;0.49;100.00;99607.25;1581862;89;21031;-70
2021/11/21 03:02:57;;;;;;;10.07;3.70;;;;;;;0.48;100.00;99612.22;1581752;89;21063;-71
2021/11/21 03:05:25;;;;;;;7.63;3.70;;;;;;;0.47;100.00;99624.30;1582806;89;21146;-70
2021/11/21 03:07:53;;;;;;;9.23;3.37;;;;;;;0.44;100.00;99625.86;1613514;88;21100;-70
2021/11/21 03:10:21;;;;;;;10.30;3.77;;;;;;;0.43;100.00;99622.85;1614846;88;21036;-71
2021/11/21 03:12:51;;;;;;;11.20;4.07;;;;;;;0.41;100.00;99619.44;1612044;88;21072;-71
2021/11/21 03:15:18;;;;;;;11.10;3.97;;;;;;;0.41;100.00;99617.64;1612135;88;21081;-71
2021/11/21 03:17:45;;;;;;;21.17;5.77;;;;;;;0.40;100.00;99617.75;1590780;88;21076;-70
2021/11/21 03:20:15;;;;;;;17.23;4.77;;;;;;;0.37;100.00;99623.67;1608936;88;21044;-71
2021/11/21 03:22:42;;;;;;;12.77;4.10;;;;;;;0.34;100.00;99623.06;1585008;90;21106;-71
2021/11/21 03:25:11;;;;;;;13.93;4.30;;;;;;;0.29;100.00;99623.89;1600078;86;21060;-71
2021/11/21 03:27:38;;;;;;;15.07;4.10;;;;;;;0.27;100.00;99621.83;1668312;85;21039;-70
2021/11/21 03:30:12;;;;;;;11.23;3.70;;;;;;;0.25;100.00;99615.75;1655987;85;21029;-71
2021/11/21 03:32:40;;;;;;;17.83;5.00;;;;;;;0.24;100.00;99619.39;1641737;87;21035;-70
2021/11/21 03:35:10;;;;;;;14.27;4.00;;;;;;;0.23;100.00;99619.89;1640943;86;21067;-71
2021/11/21 03:37:37;;;;;;;14.30;4.50;;;;;;;0.25;100.00;99621.08;1666011;85;21042;-71
2021/11/21 03:40:07;;;;;;;12.97;3.93;;;;;;;0.24;100.00;99618.06;1664386;85;21699;-71
2021/11/21 03:42:35;;;;;;;12.50;4.10;;;;;;;0.23;100.00;99615.89;1654073;85;21043;-70
2021/11/21 03:45:02;;;;;;;11.43;3.70;;;;;;;0.23;100.00;99613.70;1634214;85;20982;-70
2021/11/21 03:47:29;;;;;;;9.97;3.30;;;;;;;0.21;100.00;99611.15;1617562;87;21168;-71
2021/11/21 03:49:58;;;;;;;8.40;3.20;;;;;;;0.18;100.00;99612.73;1595621;87;21502;-71
2021/11/21 03:52:25;;;;;;;7.50;3.40;;;;;;;0.15;100.00;99617.78;1619031;87;21043;-70
2021/11/21 03:54:53;;;;;;;9.97;3.97;;;;;;;0.13;100.00;99617.55;1617915;87;21035;-71
2021/11/21 03:57:20;;;;;;;10.37;3.50;;;;;;;0.11;100.00;99620.80;1668291;85;21039;-71
2021/11/21 03:59:47;;;;;;;9.93;3.50;;;;;;;0.09;100.00;99620.91;1656968;85;21027;-71
2021/11/21 04:02:14;;;;;;;16.30;5.13;;;;;;;0.06;100.00;99618.97;1668187;85;21021;-71
2021/11/21 04:04:41;;;;;;;15.33;4.60;;;;;;;0.04;100.00;99627.05;1667991;85;21019;-71
2021/11/21 04:07:08;;;;;;;14.07;5.07;;;;;;;0.04;100.00;99633.70;1668393;85;21018;-69
2021/11/21 04:09:36;;;;;;;12.57;4.10;;;;;;;0.01;100.00;99629.93;1661900;85;21050;-70
2021/11/21 04:12:04;;;;;;;11.17;3.50;;;;;;;0.01;100.00;99626.43;1667748;85;21026;-70
2021/11/21 04:14:31;;;;;;;10.70;3.57;;;;;;;-0.06;100.00;99626.03;1616683;87;21028;-70
2021/11/21 04:16:58;;;;;;;10.13;4.00;;;;;;;-0.11;100.00;99622.86;1662583;85;21506;-69
2021/11/21 04:19:25;;;;;;;10.03;3.40;;;;;;;-0.15;100.00;99614.75;1668377;85;21596;-70
2021/11/21 04:21:54;;;;;;;10.00;3.60;;;;;;;-0.21;100.00;99614.24;1668245;85;21054;-71
2021/11/21 04:24:21;;;;;;;12.30;3.67;;;;;;;-0.27;100.00;99623.98;1645633;87;21016;-69
2021/11/21 04:26:48;;;;;;;8.30;3.10;;;;;;;-0.32;100.00;99616.85;1639170;86;21111;-70
2021/11/21 04:29:17;;;;;;;10.77;3.50;;;;;;;-0.34;100.00;99616.58;1604639;88;21083;-70
2021/11/21 04:31:45;;;;;;;9.60;3.37;;;;;;;-0.36;100.00;99617.17;1605372;87;21067;-70
2021/11/21 04:34:12;;;;;;;11.47;3.80;;;;;;;-0.37;100.00;99614.13;1575765;89;21557;-70
2021/11/21 04:36:39;;;;;;;8.97;3.30;;;;;;;-0.41;100.00;99608.20;1581134;88;21073;-71
2021/11/21 04:39:06;;;;;;;9.83;3.20;;;;;;;-0.44;100.00;99615.92;1612168;87;21047;-71
2021/11/21 04:41:33;;;;;;;9.17;3.83;;;;;;;-0.47;100.00;99609.50;1589473;88;21055;-68
2021/11/21 04:44:02;;;;;;;9.03;3.50;;;;;;;-0.50;100.00;99610.20;1586997;89;21045;-70
2021/11/21 04:46:30;;;;;;;11.87;4.57;;;;;;;-0.49;100.00;99600.80;1611932;88;21044;-69
2021/11/21 04:48:58;;;;;;;15.50;5.27;;;;;;;-0.50;100.00;99594.27;1610646;88;21032;-70
2021/11/21 04:51:25;;;;;;;12.03;4.53;;;;;;;-0.52;100.00;99597.52;1611281;88;21523;-71
2021/11/21 04:53:53;;;;;;;11.97;4.50;;;;;;;-0.52;100.00;99606.32;1608323;88;21073;-70
2021/11/21 04:56:23;;;;;;;9.63;3.67;;;;;;;-0.52;100.00;99620.09;1613444;88;21107;-70
2021/11/21 04:58:50;;;;;;;10.17;3.80;;;;;;;-0.53;100.00;99624.56;1585348;88;21178;-70
2021/11/21 05:01:18;;;;;;;12.50;3.90;;;;;;;-0.52;100.00;99623.59;1612101;87;21079;-70
2021/11/21 05:03:45;;;;;;;11.73;3.90;;;;;;;-0.52;100.00;99628.06;1578214;89;21041;-69
2021/11/21 05:06:14;;;;;;;10.50;3.40;;;;;;;-0.54;100.00;99624.18;1603672;87;21052;-70
2021/11/21 05:08:41;;;;;;;10.13;3.80;;;;;;;-0.53;100.00;99618.38;1559789;89;21067;-69
2021/11/21 05:11:10;;;;;;;12.20;4.00;;;;;;;-0.52;100.00;99616.95;1611725;88;21075;-71
2021/11/21 05:13:38;;;;;;;13.20;4.47;;;;;;;-0.50;100.00;99620.34;1587106;89;21036;-70
2021/11/21 05:16:07;;;;;;;7.63;3.33;;;;;;;-0.46;100.00;99613.86;1609453;88;21616;-70
2021/11/21 05:18:36;;;;;;;10.33;3.80;;;;;;;-0.44;100.00;99606.63;1604912;87;21191;-70
2021/11/21 05:21:03;;;;;;;9.37;3.50;;;;;;;-0.44;100.00;99617.25;1607314;88;21511;-71
2021/11/21 05:23:32;;;;;;;13.97;4.33;;;;;;;-0.43;100.00;99615.44;1610484;88;21600;-71
2021/11/21 05:25:59;;;;;;;11.53;4.07;;;;;;;-0.40;100.00;99621.38;1612156;88;21088;-70
2021/11/21 05:28:26;;;;;;;16.43;5.33;;;;;;;-0.37;100.00;99620.32;1589984;88;21552;-70
2021/11/21 05:30:54;;;;;;;17.17;6.93;;;;;;;-0.34;100.00;99632.03;1624071;87;21140;-71
2021/11/21 05:33:21;;;;;;;20.50;7.60;;;;;;;-0.29;100.00;99631.70;1623583;87;21047;-71
2021/11/21 05:35:48;;;;;;;26.33;9.67;;;;;;;-0.25;100.00;99626.06;1637484;87;21038;-71
2021/11/21 05:38:15;;;;;;;23.57;9.27;;;;;;;-0.18;100.00;99617.14;1628694;87;21034;-71
2021/11/21 05:40:42;;;;;;;21.17;8.00;;;;;;;-0.10;100.00;99625.41;1629865;87;21543;-70
2021/11/21 05:43:09;;;;;;;20.80;8.27;;;;;;;0.04;100.00;99635.03;1630834;87;21046;-71
2021/11/21 05:45:38;;;;;;;23.60;9.23;;;;;;;0.14;100.00;99633.39;1634987;87;21062;-70
2021/11/21 05:48:05;;;;;;;21.87;8.93;;;;;;;0.18;100.00;99638.83;1607381;87;21107;-68
2021/11/21 05:50:32;;;;;;;21.67;7.97;;;;;;;0.20;100.00;99648.52;1621077;87;21093;-70
2021/11/21 05:53:00;;;;;;;21.23;8.53;;;;;;;0.22;100.00;99649.25;1639712;86;21078;-70
2021/11/21 05:55:28;;;;;;;24.30;8.60;;;;;;;0.24;100.00;99642.84;1618748;87;21047;-70
2021/11/21 05:57:58;;;;;;;20.33;8.33;;;;;;;0.28;100.00;99633.66;1637037;86;21070;-69
2021/11/21 06:00:26;;;;;;;22.63;8.97;;;;;;;0.30;100.00;99633.55;1598271;88;21087;-70
2021/11/21 06:02:55;;;;;;;22.83;10.07;;;;;;;0.34;100.00;99629.22;1602358;88;21130;-70
2021/11/21 06:05:22;;;;;;;20.23;8.93;;;;;;;0.39;100.00;99640.86;1641757;86;21079;-69
2021/11/21 06:07:49;;;;;;;20.33;9.07;;;;;;;0.42;100.00;99643.26;1644893;86;21126;-70
2021/11/21 06:10:17;;;;;;;21.37;8.50;;;;;;;0.49;100.00;99637.00;1569360;88;21070;-69
2021/11/21 06:12:44;;;;;;;23.50;9.10;;;;;;;0.52;100.00;99648.26;1605409;88;21055;-70
2021/11/21 06:15:13;;;;;;;22.70;8.87;;;;;;;0.55;100.00;99648.52;1637639;86;21092;-70
2021/11/21 06:17:43;;;;;;;23.50;9.10;;;;;;;0.60;100.00;99650.81;1637731;86;21114;-70
2021/11/21 06:20:10;;;;;;;28.77;12.57;;;;;;;0.66;100.00;99656.52;1608725;89;21093;-70
2021/11/21 06:22:39;;;;;;;25.80;11.57;;;;;;;0.70;100.00;99656.64;1643418;86;21134;-71
2021/11/21 06:25:07;;;;;;;27.70;13.30;;;;;;;0.73;100.00;99652.92;1670146;85;21015;-71
2021/11/21 06:27:34;;;;;;;29.27;13.30;;;;;;;0.75;100.00;99651.82;1664072;85;21073;-69
2021/11/21 06:30:01;;;;;;;26.80;12.97;;;;;;;0.77;100.00;99658.85;1661675;85;21105;-71
2021/11/21 06:32:29;;;;;;;29.30;13.07;;;;;;;0.78;100.00;99654.75;1645028;87;21103;-70
2021/11/21 06:34:56;;;;;;;26.47;12.70;;;;;;;0.83;100.00;99654.38;1618377;87;21064;-70
2021/11/21 06:37:25;;;;;;;28.17;14.27;;;;;;;0.87;100.00;99652.70;1636901;87;21098;-69
2021/11/21 06:39:52;;;;;;;29.07;12.93;;;;;;;0.89;100.00;99652.09;1669100;85;21090;-69
2021/11/21 06:42:23;;;;;;;31.60;13.27;;;;;;;0.92;100.00;99657.65;1668442;85;21039;-70
2021/11/21 06:44:53;;;;;;;27.03;12.03;;;;;;;0.97;100.00;99658.64;1669398;85;21540;-70
2021/11/21 06:47:22;;;;;;;28.40;13.03;;;;;;;1.01;100.00;99658.75;1668807;85;21102;-70
2021/11/21 06:49:50;;;;;;;28.63;13.87;;;;;;;1.01;100.00;99647.64;1670799;85;21054;-71
2021/11/21 06:52:18;;;;;;;27.90;13.27;;;;;;;1.06;100.00;99645.47;1598124;87;21109;-71
2021/11/21 06:54:46;;;;;;;28.47;12.43;;;;;;;1.10;100.00;99643.41;1640140;85;21063;-72
2021/11/21 06:57:15;;;;;;;24.17;10.53;;;;;;;1.13;100.00;99648.02;1645883;85;21034;-72
2021/11/21 06:59:42;;;;;;;26.47;11.53;;;;;;;1.19;100.00;99636.03;1664291;85;21031;-71
2021/11/21 07:02:09;;;;;;;22.60;9.67;;;;;;;1.26;100.00;99636.40;1642610;85;21460;-72
2021/11/21 07:04:36;;;;;;;24.03;10.10;;;;;;;1.33;100.00;99633.61;1643570;85;21070;-72
2021/11/21 07:07:09;;;;;;;24.90;9.93;;;;;;;1.38;100.00;99628.77;1622531;87;21005;-69
2021/11/21 07:09:40;;;;;;;;;;;;;;;1.43;100.00;99627.05;1623568;86;21077;-71
2021/11/21 07:12:08;;;;;;;20.63;8.87;;;;;;;1.51;100.00;99625.46;1621762;86;20103;-70
2021/11/21 07:14:38;;;;;;;20.73;8.00;;;;;;;1.58;100.00;99620.98;1624153;86;21060;-70
2021/11/21 07:17:08;;;;;;;23.73;8.00;;;;;;;1.66;100.00;99614.03;1617120;86;21165;-70
2021/11/21 07:19:36;;;;;;;17.30;6.73;;;;;;;1.75;100.00;99619.11;1569619;91;21606;-71
2021/11/21 07:22:05;;;;;;;19.60;6.93;;;;;;;1.82;100.00;99612.30;1538581;91;21598;-70
2021/11/21 07:24:33;;;;;;;16.87;7.10;;;;;;;1.87;100.00;99611.44;1571281;89;21095;-69
2021/11/21 07:27:00;;;;;;;14.73;6.10;;;;;;;1.98;100.00;99621.72;1556495;91;21115;-70
2021/11/21 07:29:29;;;;;;;16.67;5.60;;;;;;;2.08;100.00;99618.16;1532410;91;21029;-70
2021/11/21 07:32:02;;;;;;;15.93;5.70;;;;;;;2.17;100.00;99611.71;1575561;88;21051;-71
2021/11/21 07:34:29;;;;;;;;;;;;;;;2.22;100.00;99617.52;1592378;90;21095;-72
2021/11/21 07:36:56;;;;;;;14.97;6.00;;;;;;;2.23;100.00;99606.72;1581641;88;20127;-71
2021/11/21 07:39:23;;;;;;;16.63;6.30;;;;;;;2.27;100.00;99608.64;1583772;89;21090;-67
2021/11/21 07:41:51;;;;;;;17.03;6.10;;;;;;;2.30;100.00;99610.19;1583337;88;21041;-65
2021/11/21 07:44:19;;;;;;;16.87;5.80;;;;;;;2.35;100.00;99599.98;1583043;89;21042;-66
2021/11/21 07:46:46;;;;;;;19.23;6.10;;;;;;;2.41;100.00;99599.48;1551571;90;21492;-65
2021/11/21 07:49:16;;;;;;;19.60;6.03;;;;;;;2.43;100.00;99592.19;1535280;92;21167;-64
2021/11/21 07:51:43;;;;;;;19.77;6.30;;;;;;;2.45;100.00;99600.91;1510765;93;21187;-73
2021/11/21 07:54:11;;;;;;;17.53;6.77;;;;;;;2.48;100.00;99584.64;1511169;93;21137;-75
2021/11/21 07:56:41;;;;;;;17.27;6.17;;;;;;;2.55;100.00;99586.28;1523031;93;21055;-74
2021/11/21 07:59:10;;;;;;;16.77;6.60;;;;;;;2.61;100.00;99586.61;1506735;93;21062;-74
2021/11/21 08:01:37;;;;;;;17.47;7.17;;;;;;;2.68;100.00;99576.25;1564535;90;21068;-74
2021/11/21 08:04:05;;;;;;;19.33;6.50;;;;;;;2.74;100.00;99571.70;1563138;90;21581;-74
2021/11/21 08:06:35;;;;;;;19.43;6.53;;;;;;;2.78;100.00;99572.28;1565354;90;21141;-75
2021/11/21 08:09:03;;;;;;;17.43;6.20;;;;;;;2.82;100.00;99577.74;1497642;95;22547;-71
2021/11/21 08:11:30;;;;;;;21.57;7.07;;;;;;;2.86;100.00;99564.47;1499988;95;21125;-72
2021/11/21 08:13:59;;;;;;;19.80;6.83;;;;;;;2.92;100.00;99567.95;1487012;95;21108;-70
2021/11/21 08:16:26;;;;;;;17.83;7.00;;;;;;;3.02;100.00;99567.98;1529840;92;21145;-70
2021/11/21 08:18:53;;;;;;;15.60;7.10;;;;;;;3.12;100.00;99570.71;1539043;92;21542;-70
2021/11/21 08:21:20;;;;;;;23.83;7.40;;;;;;;3.23;100.00;99567.92;1519843;92;21118;-72
2021/11/21 08:23:48;;;;;;;16.83;6.73;;;;;;;3.39;100.00;99574.09;1529993;91;21095;-72
2021/11/21 08:26:15;;;;;;;21.13;7.07;;;;;;;3.53;100.00;99576.88;1510116;92;21031;-71
2021/11/21 08:28:42;;;;;;;17.93;7.17;;;;;;;3.67;100.00;99573.81;1523590;91;21094;-71
2021/11/21 08:31:09;;;;;;;18.73;7.37;;;;;;;3.82;100.00;99568.05;1518028;92;21075;-71
2021/11/21 08:33:39;;;;;;;19.00;7.13;;;;;;;3.98;100.00;99565.66;1544148;92;21644;-71
2021/11/21 08:36:06;;;;;;;23.73;8.07;;;;;;;4.15;100.00;99559.61;1505120;92;21216;-72
2021/11/21 08:38:33;;;;;;;15.73;6.80;;;;;;;4.28;100.00;99561.98;1502743;92;21083;-68
2021/11/21 08:41:02;;;;;;;17.03;6.73;;;;;;;4.44;100.00;99557.89;1523074;90;21090;-69
2021/11/21 08:43:29;;;;;;;21.50;7.90;;;;;;;4.62;100.00;99551.30;1539047;91;21600;-65
2021/11/21 08:45:56;;;;;;;17.07;6.30;;;;;;;4.78;100.00;99546.20;1543575;91;21536;-73
2021/11/21 08:48:25;;;;;;;15.50;6.67;;;;;;;4.92;100.00;99532.33;1578393;91;21110;-73
2021/11/21 08:50:53;;;;;;;14.57;7.03;;;;;;;5.02;100.00;99524.73;1558231;90;21099;-72
2021/11/21 08:53:21;;;;;;;16.33;6.67;;;;;;;5.08;100.00;99508.91;1577628;90;21579;-70
2021/11/21 08:55:48;;;;;;;18.70;7.03;;;;;;;5.14;100.00;99506.97;1579551;90;21091;-70
2021/11/21 08:58:15;;;;;;;20.03;7.37;;;;;;;5.21;100.00;99503.70;1566624;90;21082;-71
2021/11/21 09:00:42;;;;;;;18.63;7.47;;;;;;;5.28;100.00;99505.63;1572738;90;21086;-71
2021/11/21 09:03:11;;;;;;;15.90;7.40;;;;;;;5.35;100.00;99507.69;1569971;90;21127;-73
2021/11/21 09:05:40;;;;;;;16.43;6.70;;;;;;;5.44;100.00;99506.30;1568932;90;21083;-73
2021/11/21 09:08:07;;;;;;;18.73;7.63;;;;;;;5.54;100.00;99502.20;1569441;90;21062;-70
2021/11/21 09:10:34;;;;;;;19.10;7.90;;;;;;;5.65;100.00;99508.70;1549437;90;21051;-72
2021/11/21 09:13:01;;;;;;;18.37;8.13;;;;;;;5.76;100.00;99502.27;1594936;88;21050;-73
2021/11/21 09:15:29;;;;;;;17.77;7.37;;;;;;;5.86;100.00;99512.42;1627956;87;21036;-66
2021/11/21 09:17:57;;;;;;;19.13;8.40;;;;;;;5.96;100.00;99504.31;1585679;89;21105;-66
2021/11/21 09:20:24;;;;;;;22.07;9.63;;;;;;;6.06;100.00;99516.32;1579047;89;21522;-66
2021/11/21 09:22:52;;;;;;;19.37;8.67;;;;;;;6.18;100.00;99517.77;1582934;89;21125;-64
2021/11/21 09:25:20;;;;;;;17.87;7.57;;;;;;;6.29;100.00;99512.64;1580551;89;21129;-71
2021/11/21 09:27:51;;;;;;;17.43;7.93;;;;;;;6.41;100.00;99519.92;1638245;87;21085;-72
2021/11/21 09:30:23;;;;;;;15.93;7.13;;;;;;;6.54;100.00;99516.34;1617780;88;21121;-71
2021/11/21 09:32:55;;;;;;;20.13;8.73;;;;;;;6.66;100.00;99511.55;1640330;87;21103;-72
2021/11/21 09:35:24;;;;;;;18.20;7.70;;;;;;;6.84;100.00;99504.25;1667242;85;21046;-68
2021/11/21 09:37:52;;;;;;;16.63;7.60;;;;;;;7.03;100.00;99504.52;1667776;85;21585;-72
2021/11/21 09:40:19;;;;;;;18.43;7.87;;;;;;;7.17;100.00;99490.10;1660211;85;21082;-71
2021/11/21 09:42:46;;;;;;;17.53;7.70;;;;;;;7.22;100.00;99502.08;1661330;85;21049;-74
2021/11/21 09:45:14;;;;;;;18.50;8.20;;;;;;;7.22;100.00;99525.42;1667641;85;21023;-71
2021/11/21 09:47:41;;;;;;;17.60;7.80;;;;;;;7.20;100.00;99508.09;1644340;87;21082;-72
2021/11/21 09:50:10;;;;;;;18.17;7.40;;;;;;;7.25;100.00;99514.86;1650350;85;21023;-71
2021/11/21 09:52:37;;;;;;;18.70;8.53;;;;;;;7.31;100.00;99513.71;1625799;87;21012;-72
2021/11/21 09:55:07;;;;;;;21.10;9.13;;;;;;;7.33;100.00;99512.17;1592940;89;21057;-72
2021/11/21 09:57:36;;;;;;;21.77;8.90;;;;;;;7.36;100.00;99510.00;1606870;88;21146;-73
2021/11/21 10:00:14;;;;;;;19.40;8.83;;;;;;;7.39;100.00;99504.81;1674525;85;21091;-78
2021/11/21 10:02:46;;;;;;;17.80;8.57;;;;;;;7.37;100.00;99500.11;1641833;85;21018;-65
2021/11/21 10:05:24;;;;;;;22.67;9.90;;;;;;;7.36;100.00;99495.72;1600642;88;21760;-71
2021/11/21 10:08:19;;;;;;;19.77;9.70;;;;;;;7.38;100.00;99505.80;1618650;88;21039;-68
2021/11/21 10:10:49;;;;;;;18.48;9.50;;;;;;;7.40;100.00;99493.03;1596767;89;21087;-68
2021/11/21 10:13:34;;;;;;;19.45;10.10;;;;;;;7.41;100.00;99491.53;1618976;88;21602;-70
2021/11/21 10:16:31;;;;;;;19.03;9.90;;;;;;;7.46;100.00;99496.94;1613856;88;21067;-69
2021/11/21 10:19:07;;;;;;;20.43;10.10;;;;;;;7.53;100.00;99496.62;1531319;91;21086;-70
2021/11/21 10:21:36;;;;;;;19.23;9.50;;;;;;;7.55;100.00;99492.74;1550004;91;21173;-67
2021/11/21 10:24:24;;;;;;;19.60;9.97;;;;;;;7.62;100.00;99501.00;1535434;92;21173;-67
2021/11/21 10:27:12;;;;;;;18.67;9.73;;;;;;;7.55;100.00;99482.49;1551611;90;21522;-70
2021/11/21 10:29:45;;;;;;;22.50;10.67;;;;;;;7.48;100.00;99483.65;1548121;91;21558;-68
2021/11/21 10:32:21;;;;;;;20.80;9.90;;;;;;;7.44;100.00;99478.75;1570545;90;21059;-65
2021/11/21 10:34:56;;;;;;;23.80;10.90;;;;;;;7.40;100.00;99477.76;1557513;91;21403;-68
2021/11/21 10:37:34;;;;;;;22.03;11.00;;;;;;;7.38;100.00;99480.25;1576213;90;21110;-68
2021/11/21 10:40:16;;;;;;;19.63;10.20;;;;;;;7.38;100.00;99475.73;1560991;90;21594;-69
2021/11/21 10:42:46;;;;;;;21.07;9.93;;;;;;;7.36;100.00;99471.00;1570376;90;21122;-66
2021/11/21 10:45:15;;;;;;;20.10;9.77;;;;;;;7.36;100.00;99458.06;1559499;90;21201;-74
2021/11/21 10:48:01;;;;;;;21.27;10.73;;;;;;;7.45;100.00;99466.48;1548502;90;21147;-74
2021/11/21 10:50:32;;;;;;;21.37;10.70;;;;;;;7.52;100.00;99464.81;1560033;90;21059;-73
2021/11/21 10:53:07;;;;;;;22.30;10.37;;;;;;;7.62;100.00;99463.84;1563105;90;21615;-74
2021/11/21 10:55:41;;;;;;;20.43;9.80;;;;;;;7.65;100.00;99460.80;1564232;90;21658;-73
2021/11/21 10:58:16;;;;;;;20.43;10.82;;;;;;;7.67;100.00;99452.92;1556590;90;21122;-74
2021/11/21 11:00:57;;;;;;;19.07;9.70;;;;;;;7.68;100.00;99460.48;1554303;91;21111;-73
2021/11/21 11:03:25;;;;;;;17.97;9.70;;;;;;;7.66;100.00;99464.67;1609525;87;21573;-75
2021/11/21 11:05:52;;;;;;;20.03;10.03;;;;;;;7.69;100.00;99454.93;1615850;87;21097;-75
2021/11/21 11:08:28;;;;;;;17.53;9.60;;;;;;;7.67;100.00;99449.39;1584882;88;21066;-73
2021/11/21 11:10:56;;;;;;;17.80;9.67;;;;;;;7.64;100.00;99460.48;1582795;88;21117;-73
2021/11/21 11:13:26;;;;;;;21.53;10.97;;;;;;;7.59;100.00;99460.45;1617003;88;21086;-75
2021/11/21 11:15:57;;;;;;;22.50;10.73;;;;;;;7.53;100.00;99467.02;1617747;87;21152;-71
2021/11/21 11:18:28;;;;;;;20.77;11.33;;;;;;;7.49;100.00;99467.00;1615463;87;21662;-74
2021/11/21 11:20:57;;;;;;;20.57;11.47;;;;;;;7.44;100.00;99462.61;1624880;87;21213;-74
2021/11/21 11:23:24;;;;;;;18.63;10.60;;;;;;;7.38;100.00;99462.30;1629468;87;21046;-73
2021/11/21 11:25:53;;;;;;;20.83;11.40;;;;;;;7.38;100.00;99460.95;1603949;87;21094;-74
2021/11/21 11:28:28;;;;;;;21.73;12.00;;;;;;;7.38;100.00;99457.39;1622832;87;21079;-73
2021/11/21 11:30:57;;;;;;;24.03;12.97;;;;;;;7.36;100.00;99458.90;1588609;85;21114;-77